createdAt,value
2022-11-12T00:00:09.989Z,19.20
2022-11-12T00:00:32.727Z,19.40
2022-11-12T00:00:55.438Z,19.60
2022-11-12T00:01:18.160Z,19.60
2022-11-12T00:01:41.006Z,19.70
2022-11-12T00:02:03.965Z,19.70
2022-11-12T00:02:26.761Z,19.70
2022-11-12T00:02:49.667Z,19.50
2022-11-12T00:03:12.526Z,19.20
2022-11-12T00:03:35.565Z,19.20
2022-11-12T00:03:58.245Z,19.10
2022-11-12T00:04:21.451Z,19.20
2022-11-12T00:04:44.219Z,19.10
2022-11-12T00:05:07.664Z,19.10
2022-11-12T00:05:30.465Z,19.20
2022-11-12T00:05:53.519Z,19.20
2022-11-12T00:06:16.290Z,19.20
2022-11-12T00:06:38.987Z,19.20
2022-11-12T00:07:02.074Z,19.20
2022-11-12T00:07:24.875Z,19.30
2022-11-12T00:07:47.619Z,19.30
2022-11-12T00:08:10.400Z,19.40
2022-11-12T00:08:33.129Z,19.40
2022-11-12T00:08:58.374Z,19.40
2022-11-12T00:09:22.856Z,19.50
2022-11-12T00:09:45.485Z,19.60
2022-11-12T00:10:08.890Z,19.60
2022-11-12T00:10:32.518Z,19.70
2022-11-12T00:10:55.200Z,19.70
2022-11-12T00:11:17.944Z,19.60
2022-11-12T00:11:40.636Z,19.70
2022-11-12T00:12:03.451Z,19.70
2022-11-12T00:12:26.280Z,19.70
2022-11-12T00:12:49.119Z,19.70
2022-11-12T00:13:11.869Z,19.70
2022-11-12T00:13:34.644Z,19.80
2022-11-12T00:14:00.261Z,19.80
2022-11-12T00:14:23.154Z,19.80
2022-11-12T00:14:46.190Z,19.80
2022-11-12T00:15:09.935Z,19.90
2022-11-12T00:15:32.644Z,19.90
2022-11-12T00:15:55.396Z,19.90
2022-11-12T00:16:18.094Z,20.00
2022-11-12T00:16:40.946Z,20.00
2022-11-12T00:17:03.661Z,20.00
2022-11-12T00:17:26.539Z,19.90
2022-11-12T00:17:49.290Z,19.90
2022-11-12T00:18:12.005Z,19.80
2022-11-12T00:18:34.694Z,19.70
2022-11-12T00:18:57.495Z,19.20
2022-11-12T00:19:20.285Z,19.20
2022-11-12T00:19:43.118Z,19.50
2022-11-12T00:20:07.370Z,19.50
2022-11-12T00:20:30.045Z,19.70
2022-11-12T00:20:52.791Z,19.60
2022-11-12T00:21:15.538Z,19.40
2022-11-12T00:21:38.260Z,19.20
2022-11-12T00:22:00.964Z,19.00
2022-11-12T00:22:23.588Z,18.90
2022-11-12T00:22:46.323Z,18.80
2022-11-12T00:23:08.994Z,18.80
2022-11-12T00:23:31.735Z,19.10
2022-11-12T00:23:54.729Z,19.10
2022-11-12T00:24:17.495Z,18.90
2022-11-12T00:24:44.309Z,18.70
2022-11-12T00:25:08.439Z,18.40
2022-11-12T00:25:31.373Z,18.30
2022-11-12T00:26:00.499Z,18.70
2022-11-12T00:26:23.286Z,18.90
2022-11-12T00:26:46.007Z,19.20
2022-11-12T00:27:08.844Z,19.30
2022-11-12T00:27:32.597Z,19.40
2022-11-12T00:27:59.993Z,19.80
2022-11-12T00:28:22.978Z,19.40
2022-11-12T00:28:45.915Z,19.60
2022-11-12T00:29:08.633Z,19.70
2022-11-12T00:29:31.314Z,19.80
2022-11-12T00:29:54.079Z,19.70
2022-11-12T00:30:17.527Z,19.70
2022-11-12T00:30:40.598Z,19.60
2022-11-12T00:31:08.795Z,19.50
2022-11-12T00:31:31.755Z,19.10
2022-11-12T00:31:54.510Z,18.80
2022-11-12T00:32:17.239Z,18.80
2022-11-12T00:32:40.181Z,18.80
2022-11-12T00:33:03.463Z,18.70
2022-11-12T00:33:26.214Z,18.80
2022-11-12T00:33:48.980Z,18.50
2022-11-12T00:34:11.687Z,18.10
2022-11-12T00:34:34.418Z,18.10
2022-11-12T00:35:00.289Z,17.80
2022-11-12T00:35:25.441Z,17.90
2022-11-12T00:35:49.038Z,17.80
2022-11-12T00:36:11.826Z,17.50
2022-11-12T00:36:34.568Z,16.90
2022-11-12T00:37:00.269Z,17.10
2022-11-12T00:37:23.414Z,17.00
2022-11-12T00:37:46.142Z,16.80
2022-11-12T00:38:08.862Z,17.20
2022-11-12T00:38:31.800Z,16.30
2022-11-12T00:38:54.529Z,16.50
2022-11-12T00:39:17.422Z,16.70
2022-11-12T00:39:40.262Z,16.80
2022-11-12T00:40:05.474Z,16.70
2022-11-12T00:40:28.426Z,16.60
2022-11-12T00:40:51.275Z,16.80
2022-11-12T00:41:14.040Z,16.70
2022-11-12T00:41:36.758Z,16.90
2022-11-12T00:41:59.523Z,17.40
2022-11-12T00:42:22.598Z,17.60
2022-11-12T00:42:45.419Z,17.60
2022-11-12T00:43:08.319Z,17.70
2022-11-12T00:43:31.084Z,18.20
2022-11-12T00:43:53.788Z,18.30
2022-11-12T00:44:16.607Z,18.10
2022-11-12T00:44:39.289Z,17.90
2022-11-12T00:45:02.108Z,17.90
2022-11-12T00:45:24.999Z,18.00
2022-11-12T00:45:47.784Z,18.20
2022-11-12T00:46:10.724Z,18.30
2022-11-12T00:46:33.445Z,18.40
2022-11-12T00:46:56.204Z,18.50
2022-11-12T00:47:19.145Z,18.50
2022-11-12T00:47:42.038Z,18.40
2022-11-12T00:48:04.894Z,18.40
2022-11-12T00:48:27.930Z,18.60
2022-11-12T00:48:51.122Z,18.90
2022-11-12T00:49:13.850Z,19.10
2022-11-12T00:49:36.739Z,19.10
2022-11-12T00:49:59.586Z,19.20
2022-11-12T00:50:22.370Z,19.10
2022-11-12T00:50:45.099Z,19.10
2022-11-12T00:51:08.004Z,19.40
2022-11-12T00:51:31.062Z,19.60
2022-11-12T00:51:53.926Z,19.50
2022-11-12T00:52:16.652Z,19.10
2022-11-12T00:52:39.518Z,18.60
2022-11-12T00:53:02.268Z,18.50
2022-11-12T00:53:24.972Z,18.00
2022-11-12T00:53:49.104Z,17.90
2022-11-12T00:54:11.952Z,18.00
2022-11-12T00:54:34.653Z,18.00
2022-11-12T00:54:57.401Z,18.00
2022-11-12T00:55:21.752Z,17.80
2022-11-12T00:55:44.506Z,17.70
2022-11-12T00:56:08.507Z,17.90
2022-11-12T00:56:35.380Z,18.40
2022-11-12T00:56:58.661Z,18.50
2022-11-12T00:57:21.440Z,18.20
2022-11-12T00:57:44.161Z,18.10
2022-11-12T00:58:06.875Z,18.00
2022-11-12T00:58:30.574Z,18.00
2022-11-12T00:58:53.445Z,17.90
2022-11-12T00:59:16.220Z,18.00
2022-11-12T00:59:39.034Z,18.00
2022-11-12T01:00:01.982Z,18.00
2022-11-12T01:00:24.750Z,18.10
2022-11-12T01:00:47.577Z,18.00
2022-11-12T01:01:12.196Z,18.20
2022-11-12T01:01:35.124Z,18.30
2022-11-12T01:01:58.697Z,18.50
2022-11-12T01:02:22.374Z,18.50
2022-11-12T01:02:50.412Z,18.80
2022-11-12T01:03:13.842Z,18.90
2022-11-12T01:03:36.844Z,18.90
2022-11-12T01:04:00.010Z,18.90
2022-11-12T01:04:22.876Z,18.90
2022-11-12T01:04:45.594Z,19.00
2022-11-12T01:05:09.319Z,19.10
2022-11-12T01:05:33.953Z,18.90
2022-11-12T01:06:02.408Z,18.80
2022-11-12T01:06:25.424Z,18.80
2022-11-12T01:06:48.484Z,18.90
2022-11-12T01:07:16.129Z,18.90
2022-11-12T01:07:38.990Z,18.90
2022-11-12T01:08:01.778Z,18.80
2022-11-12T01:08:25.233Z,18.80
2022-11-12T01:08:48.638Z,18.70
2022-11-12T01:09:11.395Z,18.70
2022-11-12T01:09:34.269Z,18.70
2022-11-12T01:09:57.008Z,18.80
2022-11-12T01:10:21.375Z,18.80
2022-11-12T01:10:44.093Z,18.60
2022-11-12T01:11:08.493Z,19.10
2022-11-12T01:11:31.315Z,18.70
2022-11-12T01:11:53.999Z,18.80
2022-11-12T01:12:16.832Z,18.90
2022-11-12T01:12:39.614Z,18.80
2022-11-12T01:13:02.408Z,18.80
2022-11-12T01:13:25.424Z,18.70
2022-11-12T01:13:52.665Z,18.70
2022-11-12T01:14:15.442Z,18.70
2022-11-12T01:14:38.288Z,18.70
2022-11-12T01:15:01.924Z,18.70
2022-11-12T01:15:25.671Z,18.70
2022-11-12T01:15:48.365Z,18.60
2022-11-12T01:16:12.490Z,18.70
2022-11-12T01:16:37.968Z,18.60
2022-11-12T01:17:00.754Z,18.60
2022-11-12T01:17:23.480Z,18.50
2022-11-12T01:17:46.344Z,18.60
2022-11-12T01:18:09.176Z,18.60
2022-11-12T01:18:31.830Z,18.60
2022-11-12T01:18:55.229Z,18.70
2022-11-12T01:19:17.950Z,18.70
2022-11-12T01:19:40.685Z,18.80
2022-11-12T01:20:03.541Z,18.80
2022-11-12T01:20:26.335Z,18.80
2022-11-12T01:20:49.119Z,18.80
2022-11-12T01:21:11.930Z,18.80
2022-11-12T01:21:37.142Z,18.90
2022-11-12T01:21:59.845Z,18.90
2022-11-12T01:22:22.600Z,19.00
2022-11-12T01:22:45.456Z,19.00
2022-11-12T01:23:08.161Z,19.10
2022-11-12T01:23:32.595Z,19.10
2022-11-12T01:23:56.546Z,19.10
2022-11-12T01:24:19.285Z,19.00
2022-11-12T01:24:42.020Z,18.90
2022-11-12T01:25:05.963Z,18.90
2022-11-12T01:25:30.127Z,19.10
2022-11-12T01:25:52.916Z,19.40
2022-11-12T01:26:17.635Z,19.40
2022-11-12T01:26:40.544Z,19.30
2022-11-12T01:27:03.459Z,19.30
2022-11-12T01:27:26.194Z,19.20
2022-11-12T01:27:48.965Z,19.10
2022-11-12T01:28:11.920Z,19.10
2022-11-12T01:28:34.736Z,19.10
2022-11-12T01:28:57.709Z,19.10
2022-11-12T01:29:20.491Z,19.20
2022-11-12T01:29:44.295Z,19.20
2022-11-12T01:30:08.639Z,18.90
2022-11-12T01:30:31.493Z,18.80
2022-11-12T01:30:54.244Z,18.60
2022-11-12T01:31:18.735Z,18.70
2022-11-12T01:31:41.506Z,19.00
2022-11-12T01:32:04.469Z,18.80
2022-11-12T01:32:28.095Z,18.70
2022-11-12T01:32:50.799Z,18.60
2022-11-12T01:33:13.644Z,18.60
2022-11-12T01:33:36.434Z,18.40
2022-11-12T01:34:00.409Z,18.40
2022-11-12T01:34:23.285Z,18.50
2022-11-12T01:34:48.802Z,18.50
2022-11-12T01:35:11.570Z,18.10
2022-11-12T01:35:34.310Z,18.10
2022-11-12T01:35:59.633Z,17.90
2022-11-12T01:36:22.484Z,18.10
2022-11-12T01:36:45.266Z,17.70
2022-11-12T01:37:08.080Z,17.40
2022-11-12T01:37:30.854Z,17.50
2022-11-12T01:37:53.609Z,17.50
2022-11-12T01:38:16.424Z,17.60
2022-11-12T01:38:40.645Z,17.50
2022-11-12T01:39:06.886Z,17.60
2022-11-12T01:39:29.739Z,17.60
2022-11-12T01:39:52.506Z,17.50
2022-11-12T01:40:15.519Z,17.30
2022-11-12T01:40:39.700Z,17.30
2022-11-12T01:41:02.496Z,17.40
2022-11-12T01:41:26.516Z,17.40
2022-11-12T01:41:52.163Z,17.50
2022-11-12T01:42:14.940Z,17.50
2022-11-12T01:42:37.783Z,17.60
2022-11-12T01:43:03.058Z,17.70
2022-11-12T01:43:25.832Z,17.70
2022-11-12T01:44:04.524Z,17.70
2022-11-12T01:44:30.744Z,17.70
2022-11-12T01:44:53.809Z,17.90
2022-11-12T01:45:16.589Z,18.10
2022-11-12T01:45:40.058Z,18.20
2022-11-12T01:46:03.613Z,18.20
2022-11-12T01:46:27.851Z,18.20
2022-11-12T01:47:00.493Z,18.30
2022-11-12T01:47:25.204Z,18.40
2022-11-12T01:47:48.103Z,18.40
2022-11-12T01:48:26.899Z,18.20
2022-11-12T01:48:52.853Z,18.20
2022-11-12T01:49:18.198Z,18.30
2022-11-12T01:49:44.311Z,18.20
2022-11-12T01:50:15.373Z,18.00
2022-11-12T01:50:38.453Z,18.10
2022-11-12T01:51:01.899Z,18.20
2022-11-12T01:51:26.089Z,18.30
2022-11-12T01:51:50.137Z,18.20
2022-11-12T01:52:17.047Z,18.30
2022-11-12T01:52:41.281Z,18.50
2022-11-12T01:53:05.933Z,18.40
2022-11-12T01:53:28.930Z,18.40
2022-11-12T01:53:53.350Z,18.30
2022-11-12T01:54:16.699Z,18.10
2022-11-12T01:54:39.565Z,18.20
2022-11-12T01:55:05.334Z,18.20
2022-11-12T01:55:29.709Z,18.30
2022-11-12T01:55:53.844Z,18.30
2022-11-12T01:56:16.770Z,18.20
2022-11-12T01:56:42.345Z,18.10
2022-11-12T01:57:05.604Z,18.00
2022-11-12T01:57:34.563Z,17.90
2022-11-12T01:57:59.737Z,18.10
2022-11-12T01:58:24.131Z,18.00
2022-11-12T01:58:47.859Z,17.90
2022-11-12T01:59:12.626Z,17.90
2022-11-12T01:59:38.821Z,18.00
2022-11-12T02:00:04.713Z,17.90
2022-11-12T02:00:28.650Z,17.80
2022-11-12T02:00:51.483Z,17.80
2022-11-12T02:01:14.246Z,17.80
2022-11-12T02:01:37.128Z,17.90
2022-11-12T02:01:59.855Z,17.90
2022-11-12T02:02:22.641Z,17.90
2022-11-12T02:02:47.468Z,18.40
2022-11-12T02:03:13.914Z,17.70
2022-11-12T02:03:36.624Z,17.70
2022-11-12T02:03:59.394Z,17.50
2022-11-12T02:04:22.203Z,17.40
2022-11-12T02:04:44.935Z,18.00
2022-11-12T02:05:08.933Z,17.60
2022-11-12T02:05:31.801Z,17.50
2022-11-12T02:05:57.148Z,17.60
2022-11-12T02:06:19.851Z,17.60
2022-11-12T02:06:42.775Z,17.70
2022-11-12T02:07:06.183Z,17.90
2022-11-12T02:07:29.039Z,18.00
2022-11-12T02:07:51.830Z,17.90
2022-11-12T02:08:15.528Z,17.80
2022-11-12T02:08:38.264Z,17.80
2022-11-12T02:09:01.238Z,17.80
2022-11-12T02:09:24.323Z,18.00
2022-11-12T02:09:47.199Z,18.20
2022-11-12T02:10:10.333Z,18.10
2022-11-12T02:10:33.149Z,18.20
2022-11-12T02:10:57.395Z,18.20
2022-11-12T02:11:20.962Z,18.00
2022-11-12T02:11:44.167Z,18.00
2022-11-12T02:12:07.349Z,18.10
2022-11-12T02:12:48.501Z,18.10
2022-11-12T02:13:29.951Z,18.20
2022-11-12T02:13:59.053Z,18.30
2022-11-12T02:14:21.787Z,18.30
2022-11-12T02:14:44.579Z,18.20
2022-11-12T02:15:08.627Z,18.20
2022-11-12T02:15:31.363Z,17.90
2022-11-12T02:15:54.225Z,17.80
2022-11-12T02:16:16.954Z,17.50
2022-11-12T02:16:41.100Z,17.30
2022-11-12T02:17:03.924Z,17.10
2022-11-12T02:17:26.660Z,17.30
2022-11-12T02:17:49.509Z,17.40
2022-11-12T02:18:12.301Z,17.50
2022-11-12T02:18:35.048Z,17.50
2022-11-12T02:18:57.795Z,17.70
2022-11-12T02:19:20.658Z,17.70
2022-11-12T02:19:43.499Z,17.90
2022-11-12T02:20:09.455Z,18.00
2022-11-12T02:20:33.798Z,18.00
2022-11-12T02:20:58.254Z,17.90
2022-11-12T02:21:22.679Z,17.50
2022-11-12T02:21:45.493Z,17.30
2022-11-12T02:22:08.175Z,16.80
2022-11-12T02:22:30.940Z,16.80
2022-11-12T02:22:53.744Z,16.60
2022-11-12T02:23:16.481Z,16.60
2022-11-12T02:23:39.308Z,16.40
2022-11-12T02:24:03.250Z,16.60
2022-11-12T02:24:32.642Z,16.50
2022-11-12T02:24:55.484Z,16.70
2022-11-12T02:25:20.428Z,16.70
2022-11-12T02:25:43.523Z,16.70
2022-11-12T02:26:06.249Z,16.50
2022-11-12T02:26:31.044Z,16.30
2022-11-12T02:26:54.843Z,16.40
2022-11-12T02:27:17.509Z,16.60
2022-11-12T02:27:40.342Z,16.60
2022-11-12T02:28:05.070Z,16.50
2022-11-12T02:28:28.263Z,16.60
2022-11-12T02:28:51.588Z,17.20
2022-11-12T02:29:14.409Z,16.80
2022-11-12T02:29:46.450Z,16.80
2022-11-12T02:30:10.465Z,16.90
2022-11-12T02:30:33.930Z,16.90
2022-11-12T02:30:56.653Z,16.90
2022-11-12T02:31:20.423Z,16.70
2022-11-12T02:31:43.214Z,16.80
2022-11-12T02:32:06.093Z,16.80
2022-11-12T02:32:28.916Z,16.80
2022-11-12T02:32:51.728Z,16.60
2022-11-12T02:33:14.509Z,16.40
2022-11-12T02:33:37.153Z,16.10
2022-11-12T02:34:00.332Z,16.10
2022-11-12T02:34:23.168Z,16.20
2022-11-12T02:34:46.655Z,16.50
2022-11-12T02:35:09.614Z,16.70
2022-11-12T02:35:32.427Z,16.80
2022-11-12T02:35:55.119Z,16.70
2022-11-12T02:36:17.808Z,16.70
2022-11-12T02:36:42.018Z,16.60
2022-11-12T02:37:04.820Z,16.50
2022-11-12T02:37:27.582Z,16.60
2022-11-12T02:37:50.381Z,16.70
2022-11-12T02:38:13.173Z,16.90
2022-11-12T02:38:36.008Z,16.90
2022-11-12T02:38:58.867Z,16.80
2022-11-12T02:39:21.602Z,16.80
2022-11-12T02:39:44.609Z,16.70
2022-11-12T02:40:09.427Z,16.90
2022-11-12T02:40:32.175Z,16.90
2022-11-12T02:40:54.943Z,16.90
2022-11-12T02:41:17.678Z,17.00
2022-11-12T02:41:40.492Z,17.10
2022-11-12T02:42:03.379Z,17.20
2022-11-12T02:42:26.108Z,17.40
2022-11-12T02:42:48.856Z,17.20
2022-11-12T02:43:11.979Z,17.00
2022-11-12T02:43:35.302Z,17.00
2022-11-12T02:43:58.107Z,17.20
2022-11-12T02:44:20.749Z,17.20
2022-11-12T02:44:43.506Z,17.30
2022-11-12T02:45:07.691Z,17.30
2022-11-12T02:45:32.336Z,17.30
2022-11-12T02:45:55.111Z,17.40
2022-11-12T02:46:17.857Z,17.30
2022-11-12T02:46:40.607Z,17.20
2022-11-12T02:47:03.368Z,17.20
2022-11-12T02:47:26.145Z,17.20
2022-11-12T02:47:48.941Z,17.20
2022-11-12T02:48:15.208Z,17.20
2022-11-12T02:48:41.783Z,17.30
2022-11-12T02:49:04.517Z,17.30
2022-11-12T02:49:27.204Z,17.40
2022-11-12T02:49:49.878Z,17.40
2022-11-12T02:50:13.055Z,17.50
2022-11-12T02:50:35.847Z,17.50
2022-11-12T02:50:58.565Z,17.60
2022-11-12T02:51:21.227Z,17.50
2022-11-12T02:51:45.448Z,17.50
2022-11-12T02:52:08.202Z,17.50
2022-11-12T02:52:30.912Z,17.50
2022-11-12T02:52:53.672Z,17.50
2022-11-12T02:53:16.502Z,17.50
2022-11-12T02:53:39.159Z,17.60
2022-11-12T02:54:01.933Z,17.70
2022-11-12T02:54:24.755Z,17.60
2022-11-12T02:54:47.528Z,17.60
2022-11-12T02:55:12.332Z,17.60
2022-11-12T02:55:35.197Z,17.60
2022-11-12T02:55:57.938Z,17.60
2022-11-12T02:56:20.656Z,17.70
2022-11-12T02:56:43.367Z,18.10
2022-11-12T02:57:06.208Z,17.60
2022-11-12T02:57:30.419Z,17.60
2022-11-12T02:57:57.373Z,17.70
2022-11-12T02:58:22.700Z,17.70
2022-11-12T02:58:48.487Z,17.80
2022-11-12T02:59:11.227Z,17.80
2022-11-12T02:59:34.027Z,17.90
2022-11-12T02:59:56.862Z,17.80
2022-11-12T03:00:19.786Z,17.80
2022-11-12T03:00:42.521Z,17.60
2022-11-12T03:01:05.860Z,17.50
2022-11-12T03:01:28.791Z,17.50
2022-11-12T03:01:51.658Z,17.40
2022-11-12T03:02:14.457Z,17.30
2022-11-12T03:02:42.922Z,17.50
2022-11-12T03:03:05.968Z,17.10
2022-11-12T03:03:28.777Z,16.80
2022-11-12T03:03:52.069Z,16.80
2022-11-12T03:04:15.852Z,16.70
2022-11-12T03:04:38.667Z,16.30
2022-11-12T03:05:01.406Z,16.40
2022-11-12T03:05:25.407Z,16.40
2022-11-12T03:05:55.072Z,16.30
2022-11-12T03:06:17.792Z,16.30
2022-11-12T03:06:44.670Z,16.20
2022-11-12T03:07:07.547Z,16.20
2022-11-12T03:07:30.449Z,16.30
2022-11-12T03:07:57.281Z,16.50
2022-11-12T03:08:20.006Z,16.60
2022-11-12T03:08:42.927Z,16.60
2022-11-12T03:09:05.712Z,16.60
2022-11-12T03:09:28.472Z,16.60
2022-11-12T03:09:51.200Z,16.60
2022-11-12T03:10:13.941Z,16.90
2022-11-12T03:10:38.572Z,17.10
2022-11-12T03:11:07.223Z,16.90
2022-11-12T03:11:30.012Z,16.80
2022-11-12T03:11:52.732Z,16.60
2022-11-12T03:12:15.526Z,16.70
2022-11-12T03:12:38.263Z,17.30
2022-11-12T03:13:03.772Z,16.80
2022-11-12T03:13:26.459Z,16.70
2022-11-12T03:13:49.249Z,16.80
2022-11-12T03:14:11.992Z,16.80
2022-11-12T03:14:34.666Z,16.80
2022-11-12T03:14:57.468Z,16.80
2022-11-12T03:15:20.395Z,16.80
2022-11-12T03:15:43.133Z,16.80
2022-11-12T03:16:06.143Z,16.90
2022-11-12T03:16:28.969Z,16.90
2022-11-12T03:16:51.677Z,16.90
2022-11-12T03:17:14.396Z,16.80
2022-11-12T03:17:37.127Z,16.80
2022-11-12T03:18:00.151Z,16.80
2022-11-12T03:18:24.274Z,16.80
2022-11-12T03:18:47.507Z,16.90
2022-11-12T03:19:10.305Z,16.90
2022-11-12T03:19:33.176Z,16.90
2022-11-12T03:19:55.911Z,16.90
2022-11-12T03:20:18.850Z,16.90
2022-11-12T03:20:41.707Z,16.90
2022-11-12T03:21:04.766Z,16.80
2022-11-12T03:21:27.532Z,16.90
2022-11-12T03:21:51.716Z,16.90
2022-11-12T03:22:14.439Z,16.90
2022-11-12T03:22:37.203Z,17.00
2022-11-12T03:23:02.886Z,17.00
2022-11-12T03:23:26.372Z,17.00
2022-11-12T03:23:49.131Z,16.80
2022-11-12T03:24:12.292Z,16.90
2022-11-12T03:24:35.066Z,16.90
2022-11-12T03:24:57.777Z,17.10
2022-11-12T03:25:20.510Z,17.00
2022-11-12T03:25:43.202Z,17.10
2022-11-12T03:26:06.135Z,17.00
2022-11-12T03:26:34.470Z,17.10
2022-11-12T03:26:59.380Z,17.00
2022-11-12T03:27:22.165Z,16.90
2022-11-12T03:27:44.841Z,16.80
2022-11-12T03:28:08.725Z,16.90
2022-11-12T03:28:31.527Z,16.90
2022-11-12T03:28:54.271Z,16.90
2022-11-12T03:29:17.132Z,16.90
2022-11-12T03:29:39.857Z,16.90
2022-11-12T03:30:02.582Z,16.80
2022-11-12T03:30:26.725Z,16.90
2022-11-12T03:30:49.515Z,17.00
2022-11-12T03:31:12.222Z,17.00
2022-11-12T03:31:35.805Z,17.00
2022-11-12T03:31:58.562Z,17.00
2022-11-12T03:32:21.352Z,17.00
2022-11-12T03:32:44.017Z,17.10
2022-11-12T03:33:07.591Z,17.10
2022-11-12T03:33:30.460Z,17.00
2022-11-12T03:33:53.247Z,17.00
2022-11-12T03:34:15.910Z,17.00
2022-11-12T03:34:38.693Z,17.10
2022-11-12T03:35:01.391Z,17.10
2022-11-12T03:35:24.321Z,17.10
2022-11-12T03:35:47.066Z,17.10
2022-11-12T03:36:10.401Z,17.10
2022-11-12T03:36:33.111Z,17.10
2022-11-12T03:36:57.460Z,17.10
2022-11-12T03:37:20.243Z,17.10
2022-11-12T03:37:42.911Z,17.60
2022-11-12T03:38:06.104Z,17.10
2022-11-12T03:38:29.099Z,17.10
2022-11-12T03:38:52.382Z,17.20
2022-11-12T03:39:15.133Z,17.30
2022-11-12T03:39:37.961Z,17.30
2022-11-12T03:40:00.817Z,17.40
2022-11-12T03:40:23.602Z,17.30
2022-11-12T03:40:46.492Z,17.70
2022-11-12T03:41:09.416Z,17.30
2022-11-12T03:41:32.031Z,17.30
2022-11-12T03:41:54.756Z,17.30
2022-11-12T03:42:18.751Z,17.30
2022-11-12T03:42:46.280Z,17.30
2022-11-12T03:43:09.057Z,17.50
2022-11-12T03:43:31.741Z,17.50
2022-11-12T03:43:54.481Z,17.70
2022-11-12T03:44:17.199Z,17.00
2022-11-12T03:44:39.946Z,17.30
2022-11-12T03:45:02.714Z,17.50
2022-11-12T03:45:26.754Z,17.40
2022-11-12T03:45:49.451Z,17.60
2022-11-12T03:46:12.701Z,17.00
2022-11-12T03:46:41.479Z,17.10
2022-11-12T03:47:06.806Z,17.30
2022-11-12T03:47:29.862Z,16.90
2022-11-12T03:47:54.032Z,16.50
2022-11-12T03:48:16.795Z,16.50
2022-11-12T03:48:39.546Z,16.50
2022-11-12T03:49:02.897Z,16.10
2022-11-12T03:49:25.776Z,16.10
2022-11-12T03:49:48.511Z,15.90
2022-11-12T03:50:11.381Z,16.10
2022-11-12T03:50:34.123Z,16.40
2022-11-12T03:50:58.331Z,16.20
2022-11-12T03:51:21.466Z,16.40
2022-11-12T03:51:44.506Z,16.40
2022-11-12T03:52:08.741Z,16.30
2022-11-12T03:52:31.548Z,16.50
2022-11-12T03:52:55.756Z,16.60
2022-11-12T03:53:19.120Z,16.70
2022-11-12T03:53:42.112Z,16.90
2022-11-12T03:54:05.296Z,17.30
2022-11-12T03:54:28.055Z,17.40
2022-11-12T03:54:50.790Z,17.60
2022-11-12T03:55:13.693Z,17.60
2022-11-12T03:55:36.481Z,17.60
2022-11-12T03:55:59.261Z,17.40
2022-11-12T03:56:22.002Z,17.30
2022-11-12T03:56:45.816Z,17.40
2022-11-12T03:57:08.605Z,17.00
2022-11-12T03:57:31.379Z,17.00
2022-11-12T03:57:54.146Z,17.00
2022-11-12T03:58:16.931Z,16.60
2022-11-12T03:58:39.801Z,16.20
2022-11-12T03:59:02.821Z,15.80
2022-11-12T03:59:25.572Z,15.00
2022-11-12T03:59:48.353Z,14.50
2022-11-12T04:00:12.519Z,14.60
2022-11-12T04:00:35.227Z,14.10
2022-11-12T04:00:57.994Z,13.30
2022-11-12T04:01:23.793Z,13.00
2022-11-12T04:01:46.786Z,13.90
2022-11-12T04:02:14.667Z,14.50
2022-11-12T04:02:37.448Z,14.40
2022-11-12T04:03:00.292Z,13.30
2022-11-12T04:03:24.035Z,13.60
2022-11-12T04:03:46.756Z,14.00
2022-11-12T04:04:10.350Z,14.20
2022-11-12T04:04:51.955Z,14.80
2022-11-12T04:05:33.416Z,15.20
2022-11-12T04:06:14.767Z,15.40
2022-11-12T04:06:56.538Z,15.80
2022-11-12T04:07:39.386Z,15.70
2022-11-12T04:08:21.391Z,15.10
2022-11-12T04:08:44.271Z,15.60
2022-11-12T04:09:07.055Z,15.40
2022-11-12T04:09:29.778Z,14.70
2022-11-12T04:09:52.490Z,14.60
2022-11-12T04:10:15.375Z,14.90
2022-11-12T04:10:38.149Z,15.40
2022-11-12T04:11:00.916Z,15.40
2022-11-12T04:11:23.672Z,15.00
2022-11-12T04:11:46.476Z,15.10
2022-11-12T04:12:27.840Z,14.80
2022-11-12T04:13:09.056Z,15.20
2022-11-12T04:13:31.856Z,15.50
2022-11-12T04:13:54.820Z,16.30
2022-11-12T04:14:17.550Z,16.70
2022-11-12T04:14:40.254Z,16.70
2022-11-12T04:15:06.796Z,16.40
2022-11-12T04:15:29.460Z,15.50
2022-11-12T04:16:12.166Z,14.90
2022-11-12T04:16:53.570Z,14.60
2022-11-12T04:17:34.891Z,13.60
2022-11-12T04:18:16.160Z,13.90
2022-11-12T04:18:54.476Z,14.20
2022-11-12T04:19:36.067Z,14.20
2022-11-12T04:20:17.766Z,13.10
2022-11-12T04:21:00.410Z,12.10
2022-11-12T04:21:41.971Z,11.10
2022-11-12T04:22:06.255Z,9.10
2022-11-12T04:22:30.489Z,9.30
2022-11-12T04:22:53.281Z,10.40
2022-11-12T04:23:16.088Z,10.90
2022-11-12T04:23:40.041Z,10.30
2022-11-12T04:24:02.794Z,10.70
2022-11-12T04:24:45.376Z,9.80
2022-11-12T04:25:26.697Z,9.70
2022-11-12T04:26:08.155Z,6.50
2022-11-12T04:26:30.916Z,6.00
2022-11-12T04:26:53.657Z,7.50
2022-11-12T04:27:17.205Z,5.10
2022-11-12T04:27:43.096Z,1.70
2022-11-12T04:28:05.922Z,1.00
2022-11-12T04:28:29.001Z,1.00
2022-11-12T04:29:10.432Z,1.00
2022-11-12T04:29:52.080Z,1.00
2022-11-12T04:30:19.145Z,2.50
2022-11-12T04:30:41.844Z,3.70
2022-11-12T04:31:04.551Z,3.30
2022-11-12T04:31:27.295Z,4.40
2022-11-12T04:31:50.003Z,5.50
2022-11-12T04:32:12.936Z,5.50
2022-11-12T04:32:36.804Z,5.10
2022-11-12T04:32:59.620Z,5.00
2022-11-12T04:33:22.399Z,5.70
2022-11-12T04:33:45.125Z,7.20
2022-11-12T04:34:26.632Z,8.20
2022-11-12T04:34:49.484Z,9.10
2022-11-12T04:35:13.530Z,9.50
2022-11-12T04:35:36.429Z,9.60
2022-11-12T04:35:59.147Z,10.30
2022-11-12T04:36:21.950Z,10.70
2022-11-12T04:36:44.676Z,10.70
2022-11-12T04:37:07.680Z,11.10
2022-11-12T04:37:44.911Z,10.90
2022-11-12T04:38:07.881Z,12.10
2022-11-12T04:38:30.716Z,12.50
2022-11-12T04:38:53.436Z,12.10
2022-11-12T04:39:16.079Z,11.90
2022-11-12T04:39:38.795Z,11.50
2022-11-12T04:40:21.618Z,11.90
2022-11-12T04:41:03.159Z,11.90
2022-11-12T04:41:44.487Z,13.30
2022-11-12T04:42:27.381Z,13.80
2022-11-12T04:43:08.658Z,13.90
2022-11-12T04:43:49.916Z,14.10
2022-11-12T04:44:31.300Z,13.70
2022-11-12T04:45:00.398Z,14.80
2022-11-12T04:45:23.206Z,15.60
2022-11-12T04:45:47.952Z,15.50
2022-11-12T04:46:10.715Z,15.50
2022-11-12T04:46:33.462Z,15.30
2022-11-12T04:46:56.180Z,15.50
2022-11-12T04:47:18.951Z,15.90
2022-11-12T04:47:43.956Z,16.00
2022-11-12T04:48:06.905Z,16.20
2022-11-12T04:48:29.956Z,15.70
2022-11-12T04:48:53.075Z,15.40
2022-11-12T04:49:15.820Z,15.30
2022-11-12T04:49:38.560Z,15.90
2022-11-12T04:50:01.464Z,16.50
2022-11-12T04:50:24.495Z,16.60
2022-11-12T04:50:48.652Z,16.30
2022-11-12T04:51:31.715Z,15.90
2022-11-12T04:52:06.411Z,15.60
2022-11-12T04:52:31.515Z,15.60
2022-11-12T04:52:54.360Z,15.50
2022-11-12T04:53:17.163Z,15.60
2022-11-12T04:53:39.991Z,15.90
2022-11-12T04:54:02.882Z,15.70
2022-11-12T04:54:25.652Z,14.60
2022-11-12T04:54:48.500Z,14.60
2022-11-12T04:55:11.278Z,14.70
2022-11-12T04:55:35.184Z,14.00
2022-11-12T04:55:58.724Z,12.30
2022-11-12T04:56:21.502Z,11.80
2022-11-12T04:56:44.261Z,11.60
2022-11-12T04:57:06.997Z,9.90
2022-11-12T04:57:29.834Z,6.20
2022-11-12T04:57:56.171Z,4.60
2022-11-12T04:58:23.490Z,4.40
2022-11-12T04:58:46.615Z,4.70
2022-11-12T04:59:09.333Z,3.00
2022-11-12T04:59:32.029Z,3.20
2022-11-12T04:59:54.874Z,3.90
2022-11-12T05:00:20.254Z,4.70
2022-11-12T05:00:45.836Z,6.10
2022-11-12T05:01:08.637Z,5.40
2022-11-12T05:01:31.526Z,5.10
2022-11-12T05:01:54.355Z,5.20
2022-11-12T05:02:17.269Z,5.10
2022-11-12T05:02:40.055Z,4.20
2022-11-12T05:03:05.157Z,5.30
2022-11-12T05:03:27.816Z,7.00
2022-11-12T05:03:50.640Z,7.90
2022-11-12T05:04:13.363Z,9.10
2022-11-12T05:04:36.095Z,9.70
2022-11-12T05:04:58.930Z,10.30
2022-11-12T05:05:21.902Z,10.90
2022-11-12T05:05:44.796Z,9.20
2022-11-12T05:06:34.116Z,8.30
2022-11-12T05:06:57.171Z,8.00
2022-11-12T05:07:20.023Z,9.20
2022-11-12T05:07:44.231Z,10.90
2022-11-12T05:08:06.944Z,11.00
2022-11-12T05:08:29.836Z,9.90
2022-11-12T05:08:52.664Z,8.50
2022-11-12T05:09:15.359Z,7.60
2022-11-12T05:09:38.264Z,5.80
2022-11-12T05:10:01.129Z,5.20
2022-11-12T05:10:23.874Z,6.00
2022-11-12T05:10:46.601Z,6.60
2022-11-12T05:11:12.812Z,7.00
2022-11-12T05:11:36.177Z,7.40
2022-11-12T05:11:58.887Z,6.90
2022-11-12T05:12:21.596Z,7.10
2022-11-12T05:12:44.362Z,6.50
2022-11-12T05:13:07.102Z,5.90
2022-11-12T05:13:30.014Z,5.40